createdAt,value
2022-08-05T00:00:19.136Z,36.93
2022-08-05T00:03:09.161Z,37.77
2022-08-05T00:06:05.646Z,36.68
2022-08-05T00:08:35.038Z,36.56
2022-08-05T00:11:20.320Z,36.55
2022-08-05T00:13:53.131Z,36.74
2022-08-05T00:16:36.108Z,36.36
2022-08-05T00:19:06.588Z,36.32
2022-08-05T00:21:35.630Z,36.25
2022-08-05T00:24:10.088Z,36.77
2022-08-05T00:26:39.426Z,36.52
2022-08-05T00:29:18.672Z,36.67
2022-08-05T00:32:10.495Z,36.83
2022-08-05T00:34:54.152Z,36.90
2022-08-05T00:37:35.894Z,37.10
2022-08-05T00:40:17.660Z,37.50
2022-08-05T00:42:54.596Z,37.48
2022-08-05T00:45:37.779Z,38.31
2022-08-05T00:48:08.185Z,38.34
2022-08-05T00:50:57.366Z,39.06
2022-08-05T00:54:00.617Z,40.14
2022-08-05T00:56:14.211Z,40.49
2022-08-05T00:58:45.892Z,40.94
2022-08-05T01:04:36.226Z,42.21
2022-08-05T01:07:13.677Z,42.87
2022-08-05T01:09:42.674Z,42.41
2022-08-05T01:12:18.617Z,42.49
2022-08-05T01:15:04.033Z,41.87
2022-08-05T01:17:40.258Z,42.00
2022-08-05T01:20:22.392Z,41.71
2022-08-05T01:23:13.565Z,42.00
2022-08-05T01:25:58.730Z,42.43
2022-08-05T01:28:31.999Z,42.55
2022-08-05T01:31:03.008Z,42.77
2022-08-05T01:33:35.989Z,42.41
2022-08-05T01:36:13.184Z,42.42
2022-08-05T01:38:48.584Z,42.39
2022-08-05T01:41:22.829Z,43.11
2022-08-05T01:43:55.938Z,43.69
2022-08-05T01:46:42.441Z,42.95
2022-08-05T01:49:23.142Z,43.05
2022-08-05T01:51:52.530Z,43.24
2022-08-05T01:54:27.269Z,43.59
2022-08-05T01:58:18.948Z,43.27
2022-08-05T01:59:52.052Z,43.73
2022-08-05T02:02:28.528Z,44.48
2022-08-05T02:05:01.140Z,44.57
2022-08-05T02:07:30.993Z,45.28
2022-08-05T02:10:00.519Z,45.74
2022-08-05T02:12:35.849Z,46.45
2022-08-05T02:15:12.470Z,46.34
2022-08-05T02:18:29.333Z,46.95
2022-08-05T02:20:46.922Z,47.65
2022-08-05T02:23:16.051Z,49.01
2022-08-05T02:25:50.039Z,49.75
2022-08-05T02:28:29.176Z,49.90
2022-08-05T02:31:04.134Z,50.33
2022-08-05T02:33:38.843Z,50.61
2022-08-05T02:36:09.944Z,50.80
2022-08-05T02:38:43.313Z,50.85
2022-08-05T02:41:17.321Z,51.20
2022-08-05T02:44:02.485Z,51.64
2022-08-05T02:46:53.365Z,51.96
2022-08-05T02:49:36.689Z,52.68
2022-08-05T02:52:08.767Z,52.59
2022-08-05T02:54:41.159Z,52.67
2022-08-05T02:58:20.088Z,52.66
2022-08-05T03:00:01.238Z,53.06
2022-08-05T03:02:35.415Z,53.58
2022-08-05T03:05:05.326Z,53.61
2022-08-05T03:08:00.457Z,53.58
2022-08-05T03:10:25.212Z,53.77
2022-08-05T03:12:53.988Z,54.22
2022-08-05T03:15:23.449Z,53.97
2022-08-05T03:17:55.891Z,54.12
2022-08-05T03:20:24.796Z,54.19
2022-08-05T03:22:57.059Z,53.95
2022-08-05T03:25:32.710Z,54.27
2022-08-05T03:28:18.844Z,54.34
2022-08-05T03:30:49.611Z,54.32
2022-08-05T03:33:20.515Z,54.37
2022-08-05T03:35:50.464Z,54.41
2022-08-05T03:38:23.929Z,54.65
2022-08-05T03:44:08.368Z,54.65
2022-08-05T03:46:26.767Z,54.95
2022-08-05T03:48:59.336Z,54.88
2022-08-05T03:52:39.290Z,55.05
2022-08-05T03:56:00.779Z,55.15
2022-08-05T03:57:42.056Z,55.10
2022-08-05T04:00:15.611Z,55.13
2022-08-05T04:02:58.135Z,54.96
2022-08-05T04:05:33.566Z,55.27
2022-08-05T04:08:05.726Z,55.34
2022-08-05T04:10:45.051Z,55.53
2022-08-05T04:13:13.020Z,55.46
2022-08-05T04:16:02.702Z,55.62
2022-08-05T04:18:29.815Z,55.72
2022-08-05T04:20:59.896Z,55.79
2022-08-05T04:23:58.357Z,55.64
2022-08-05T04:26:18.083Z,55.73
2022-08-05T04:28:51.779Z,55.50
2022-08-05T04:31:20.247Z,55.34
2022-08-05T04:34:19.273Z,55.35
2022-08-05T04:36:44.695Z,55.65
2022-08-05T04:39:14.547Z,55.33
2022-08-05T04:41:42.719Z,55.52
2022-08-05T04:44:12.257Z,55.38
2022-08-05T04:46:40.563Z,55.12
2022-08-05T04:49:12.333Z,54.69
2022-08-05T04:51:44.274Z,54.89
2022-08-05T04:54:12.404Z,54.78
2022-08-05T04:56:40.635Z,54.77
2022-08-05T04:59:14.011Z,54.57
2022-08-05T05:02:06.350Z,54.72
2022-08-05T05:04:36.314Z,54.72
2022-08-05T05:07:09.524Z,54.97
2022-08-05T05:09:39.495Z,54.87
2022-08-05T05:12:09.093Z,54.99
2022-08-05T05:14:49.513Z,55.30
2022-08-05T05:17:23.807Z,55.44
2022-08-05T05:19:54.732Z,55.56
2022-08-05T05:22:26.107Z,55.65
2022-08-05T05:24:56.957Z,55.61
2022-08-05T05:27:44.655Z,55.69
2022-08-05T05:30:29.237Z,55.85
2022-08-05T05:33:00.216Z,55.69
2022-08-05T05:35:31.599Z,55.77
2022-08-05T05:38:05.612Z,55.34
2022-08-05T05:40:37.777Z,54.75
2022-08-05T05:43:11.726Z,54.52
2022-08-05T05:45:48.143Z,53.35
2022-08-05T05:48:16.450Z,52.85
2022-08-05T05:50:44.646Z,52.32
2022-08-05T05:53:20.994Z,51.65
2022-08-05T05:55:51.756Z,51.93
2022-08-05T05:58:30.380Z,51.80
2022-08-05T06:01:13.093Z,51.30
2022-08-05T06:04:00.501Z,51.27
2022-08-05T06:06:30.882Z,50.69
2022-08-05T06:09:02.172Z,50.78
2022-08-05T06:11:32.545Z,50.70
2022-08-05T06:14:00.670Z,50.54
2022-08-05T06:16:32.868Z,50.25
2022-08-05T06:19:07.113Z,49.59
2022-08-05T06:21:37.493Z,49.29
2022-08-05T06:24:12.042Z,48.95
2022-08-05T06:26:51.390Z,47.83
2022-08-05T06:29:25.434Z,47.66
2022-08-05T06:32:25.446Z,47.22
2022-08-05T06:34:56.559Z,46.57
2022-08-05T06:37:57.651Z,46.39
2022-08-05T06:40:18.493Z,45.14
2022-08-05T06:42:51.639Z,44.88
2022-08-05T06:45:21.521Z,43.85
2022-08-05T06:48:44.443Z,42.92
2022-08-05T06:50:58.142Z,42.43
2022-08-05T06:53:29.151Z,41.58
2022-08-05T06:55:59.569Z,41.13
2022-08-05T06:58:36.123Z,40.48
2022-08-05T07:01:06.686Z,40.57
2022-08-05T07:03:35.858Z,40.06
2022-08-05T07:06:14.338Z,39.47
2022-08-05T07:08:48.030Z,38.50
2022-08-05T07:11:25.248Z,38.17
2022-08-05T07:14:20.116Z,37.39
2022-08-05T07:17:58.836Z,37.85
2022-08-05T07:20:31.698Z,37.70
2022-08-05T07:22:36.293Z,37.06
2022-08-05T07:25:22.444Z,37.35
2022-08-05T07:27:58.558Z,36.78
2022-08-05T07:30:32.438Z,36.35
2022-08-05T07:33:01.453Z,35.51
2022-08-05T07:36:03.567Z,34.48
2022-08-05T07:38:32.835Z,34.53
2022-08-05T07:41:35.092Z,34.71
2022-08-05T07:43:56.915Z,34.55
2022-08-05T07:46:26.677Z,34.44
2022-08-05T07:49:02.068Z,32.37
2022-08-05T07:51:37.439Z,32.32
2022-08-05T07:54:10.518Z,31.46
2022-08-05T07:57:13.262Z,31.28
2022-08-05T07:59:38.638Z,33.46
2022-08-05T08:02:15.374Z,33.93
2022-08-05T08:04:46.263Z,30.90
2022-08-05T08:07:15.093Z,34.10
2022-08-05T08:09:43.597Z,34.47
2022-08-05T08:12:33.349Z,34.07
2022-08-05T08:15:03.724Z,25.78
2022-08-05T08:17:33.056Z,22.95
2022-08-05T08:20:22.839Z,19.96
2022-08-05T08:22:54.156Z,18.99
2022-08-05T08:25:26.867Z,17.94
2022-08-05T08:28:18.959Z,19.27
2022-08-05T08:31:02.012Z,19.44
2022-08-05T08:33:37.492Z,24.13
2022-08-05T08:36:38.898Z,26.68
2022-08-05T08:38:56.797Z,27.62
2022-08-05T08:41:52.310Z,23.36
2022-08-05T08:45:22.227Z,19.60
2022-08-05T08:47:47.436Z,16.30
2022-08-05T08:50:12.926Z,16.14
2022-08-05T08:52:53.103Z,14.72
2022-08-05T08:55:32.046Z,15.11
2022-08-05T08:58:10.654Z,16.29
2022-08-05T09:00:41.707Z,15.10
2022-08-05T09:03:15.909Z,14.32
2022-08-05T09:06:08.543Z,15.03
2022-08-05T09:08:37.224Z,14.31
2022-08-05T09:11:12.230Z,13.28
2022-08-05T09:14:09.535Z,13.00
2022-08-05T09:16:31.111Z,13.47
2022-08-05T09:19:00.382Z,12.35
2022-08-05T09:22:22.291Z,12.16
2022-08-05T09:24:18.011Z,11.83
2022-08-05T09:26:48.758Z,12.58
2022-08-05T09:29:20.365Z,12.34
2022-08-05T09:32:40.300Z,12.03
2022-08-05T09:34:55.030Z,11.12
2022-08-05T09:38:16.163Z,11.55
2022-08-05T09:40:30.508Z,11.47
2022-08-05T09:43:01.432Z,13.15
2022-08-05T09:46:07.641Z,13.59
2022-08-05T09:48:29.272Z,14.91
2022-08-05T09:51:01.029Z,16.98
2022-08-05T09:53:53.772Z,16.95
2022-08-05T09:56:26.424Z,18.27
2022-08-05T09:58:58.822Z,19.32
2022-08-05T10:01:32.004Z,20.97
2022-08-05T10:04:10.557Z,19.74
2022-08-05T10:06:41.574Z,17.41
2022-08-05T10:09:27.374Z,19.37
2022-08-05T10:12:18.491Z,19.72
2022-08-05T10:15:17.020Z,18.70
2022-08-05T10:17:56.731Z,19.46
2022-08-05T10:20:26.567Z,18.46
2022-08-05T10:22:57.746Z,17.60
2022-08-05T10:25:26.620Z,18.27
2022-08-05T10:28:12.750Z,20.28
2022-08-05T10:32:47.217Z,19.46
2022-08-05T10:33:35.077Z,16.62
2022-08-05T10:36:05.146Z,15.26
2022-08-05T10:38:37.147Z,14.75
2022-08-05T10:41:13.887Z,14.61
2022-08-05T10:43:50.342Z,14.28
2022-08-05T10:46:23.763Z,13.58
2022-08-05T10:49:02.667Z,14.42
2022-08-05T10:51:53.212Z,14.46
2022-08-05T10:54:57.029Z,14.80
2022-08-05T10:57:31.755Z,14.90
2022-08-05T11:00:18.736Z,15.13
2022-08-05T11:03:24.776Z,13.31
2022-08-05T11:06:16.184Z,12.72
2022-08-05T11:09:32.179Z,12.85
2022-08-05T11:12:42.223Z,13.44
2022-08-05T11:15:20.302Z,13.01
2022-08-05T11:17:56.765Z,13.59
2022-08-05T11:20:37.446Z,14.39
2022-08-05T11:24:04.417Z,14.58
2022-08-05T11:26:28.886Z,15.54
2022-08-05T11:29:06.926Z,15.40
2022-08-05T11:31:54.051Z,14.79
2022-08-05T11:34:39.430Z,14.59
2022-08-05T11:38:29.585Z,14.83
2022-08-05T11:40:03.268Z,15.50
2022-08-05T11:42:37.660Z,16.35
2022-08-05T11:45:23.198Z,16.15
2022-08-05T11:47:56.860Z,17.35
2022-08-05T11:50:26.919Z,17.35
2022-08-05T11:52:58.138Z,19.34
2022-08-05T11:55:32.207Z,19.45
2022-08-05T11:58:11.053Z,18.74
2022-08-05T12:00:41.259Z,18.64
2022-08-05T12:03:28.782Z,17.85
2022-08-05T12:06:01.716Z,17.78
2022-08-05T12:08:31.588Z,17.17
2022-08-05T12:11:05.425Z,17.54
2022-08-05T12:13:48.422Z,17.23
2022-08-05T12:16:19.594Z,17.85
2022-08-05T12:18:53.109Z,16.44
2022-08-05T12:24:31.829Z,16.93
2022-08-05T12:26:59.730Z,16.94
2022-08-05T12:29:39.006Z,17.31
2022-08-05T12:32:09.481Z,18.92
2022-08-05T12:34:39.143Z,19.25
2022-08-05T12:37:30.136Z,19.36
2022-08-05T12:40:03.515Z,20.16
2022-08-05T12:42:40.499Z,20.22
2022-08-05T12:45:10.061Z,20.29
2022-08-05T12:47:43.465Z,20.43
2022-08-05T12:50:27.219Z,19.18
2022-08-05T12:52:59.779Z,19.01
2022-08-05T12:55:32.783Z,19.43
2022-08-05T12:58:48.951Z,18.97
2022-08-05T13:02:00.259Z,18.72
2022-08-05T13:03:42.526Z,18.85
2022-08-05T13:06:16.692Z,17.76
2022-08-05T13:08:51.488Z,15.84
2022-08-05T13:11:47.006Z,15.99
2022-08-05T13:14:20.137Z,15.08
2022-08-05T13:16:56.388Z,13.60
2022-08-05T13:19:26.702Z,13.99
2022-08-05T13:21:55.988Z,13.14
2022-08-05T13:24:44.985Z,13.71
2022-08-05T13:27:17.015Z,13.35
2022-08-05T13:30:31.404Z,13.08
2022-08-05T13:32:42.154Z,14.34
2022-08-05T13:35:22.299Z,14.70
2022-08-05T13:38:05.028Z,14.56
2022-08-05T13:40:51.316Z,13.92
2022-08-05T13:43:22.002Z,14.76
2022-08-05T13:45:50.791Z,15.54
2022-08-05T13:48:57.875Z,17.22
2022-08-05T13:51:07.885Z,17.36
2022-08-05T13:53:47.832Z,17.23
2022-08-05T13:56:18.005Z,19.44
2022-08-05T13:58:53.491Z,19.66
2022-08-05T14:01:36.261Z,19.37
2022-08-05T14:04:28.751Z,19.05
2022-08-05T14:07:11.931Z,19.45
2022-08-05T14:09:46.399Z,19.58
2022-08-05T14:12:17.550Z,19.76
2022-08-05T14:14:48.018Z,20.22
2022-08-05T14:17:19.413Z,19.54
2022-08-05T14:19:55.930Z,21.12
2022-08-05T14:22:30.306Z,22.64
2022-08-05T14:25:02.550Z,23.07
2022-08-05T14:27:34.522Z,23.81
2022-08-05T14:30:20.671Z,23.13
2022-08-05T14:32:49.579Z,24.55
2022-08-05T14:35:20.770Z,24.62
2022-08-05T14:37:54.993Z,25.49
2022-08-05T14:40:24.336Z,25.69
2022-08-05T14:42:52.640Z,26.23
2022-08-05T14:45:21.918Z,26.28
2022-08-05T14:48:02.869Z,24.06
2022-08-05T14:50:39.769Z,22.43
2022-08-05T14:53:08.919Z,20.73
2022-08-05T14:55:39.194Z,21.14
2022-08-05T14:58:11.002Z,22.19
2022-08-05T15:00:58.198Z,22.45
2022-08-05T15:03:26.738Z,24.69
2022-08-05T15:06:07.550Z,26.01
2022-08-05T15:08:59.517Z,26.69
2022-08-05T15:11:51.681Z,26.70
2022-08-05T15:14:33.413Z,27.38
2022-08-05T15:17:04.173Z,27.66
2022-08-05T15:19:34.949Z,28.65
2022-08-05T15:22:03.358Z,28.93
2022-08-05T15:24:31.832Z,29.49
2022-08-05T15:26:59.737Z,30.34
2022-08-05T15:29:29.841Z,30.14
2022-08-05T15:32:03.259Z,29.04
2022-08-05T15:34:34.082Z,28.98
2022-08-05T15:37:06.289Z,28.82
2022-08-05T15:40:58.277Z,29.03
2022-08-05T15:42:53.498Z,32.05
2022-08-05T15:45:11.679Z,32.52
2022-08-05T15:47:39.645Z,33.00
2022-08-05T15:50:15.411Z,33.85
2022-08-05T15:52:53.676Z,34.37
2022-08-05T15:55:24.917Z,34.67
2022-08-05T15:58:16.368Z,35.06
2022-08-05T16:01:11.672Z,35.03
2022-08-05T16:03:33.901Z,35.14
2022-08-05T16:06:03.368Z,35.62
2022-08-05T16:08:35.025Z,36.45
2022-08-05T16:11:03.377Z,35.72
2022-08-05T16:13:34.259Z,35.80
2022-08-05T16:16:03.243Z,35.73
2022-08-05T16:18:32.925Z,35.73
2022-08-05T16:21:04.178Z,35.37
2022-08-05T16:27:32.028Z,35.30
2022-08-05T16:30:25.651Z,35.46
2022-08-05T16:32:55.152Z,37.05
2022-08-05T16:35:27.724Z,38.17
2022-08-05T16:38:16.455Z,38.38
2022-08-05T16:40:47.706Z,38.59
2022-08-05T16:43:23.641Z,39.36
2022-08-05T16:46:03.987Z,40.27
2022-08-05T16:48:38.257Z,40.37
2022-08-05T16:51:09.178Z,40.58
2022-08-05T16:54:05.064Z,40.30
2022-08-05T16:56:27.646Z,41.82
2022-08-05T16:58:57.540Z,41.87
2022-08-05T17:01:25.979Z,42.52
2022-08-05T17:03:54.139Z,42.07
2022-08-05T17:06:24.465Z,41.75
2022-08-05T17:08:54.329Z,43.15
2022-08-05T17:11:25.368Z,42.69
2022-08-05T17:14:00.237Z,42.75
2022-08-05T17:16:36.733Z,42.84
2022-08-05T17:19:07.510Z,43.21
2022-08-05T17:21:36.938Z,43.82
2022-08-05T17:24:14.304Z,43.87
2022-08-05T17:26:55.484Z,44.10
2022-08-05T17:29:34.110Z,44.48
2022-08-05T17:32:11.481Z,45.20
2022-08-05T17:34:44.657Z,45.63
2022-08-05T17:37:40.546Z,45.51
2022-08-05T17:40:10.005Z,46.78
2022-08-05T17:42:42.903Z,47.36
2022-08-05T17:45:20.551Z,47.59
2022-08-05T17:47:54.490Z,47.67
2022-08-05T17:50:28.605Z,47.93
2022-08-05T17:52:59.464Z,48.79
2022-08-05T17:55:34.606Z,49.06
2022-08-05T17:58:07.199Z,50.14
2022-08-05T18:00:40.776Z,49.56
2022-08-05T18:03:28.048Z,50.86
2022-08-05T18:06:11.059Z,50.42
2022-08-05T18:08:44.437Z,50.67
2022-08-05T18:11:23.794Z,50.77
2022-08-05T18:13:54.875Z,51.24
2022-08-05T18:16:23.730Z,50.81
2022-08-05T18:18:52.987Z,51.32
2022-08-05T18:21:22.989Z,50.81
2022-08-05T18:23:54.411Z,51.36
2022-08-05T18:26:27.709Z,51.67
2022-08-05T18:28:58.244Z,51.34
2022-08-05T18:31:33.937Z,52.00
2022-08-05T18:34:06.158Z,51.65
2022-08-05T18:36:36.174Z,51.89
2022-08-05T18:39:09.780Z,52.39
2022-08-05T18:42:01.825Z,52.58
2022-08-05T18:44:35.398Z,52.64
2022-08-05T18:47:17.455Z,53.19
2022-08-05T18:50:10.522Z,53.62
2022-08-05T18:52:41.756Z,54.00
2022-08-05T18:55:20.354Z,54.77
2022-08-05T18:57:52.800Z,54.41
2022-08-05T19:00:25.043Z,55.23
2022-08-05T19:03:03.961Z,54.80
2022-08-05T19:06:11.482Z,55.35
2022-08-05T19:08:30.741Z,55.25
2022-08-05T19:11:04.451Z,55.84
2022-08-05T19:13:36.150Z,55.93
2022-08-05T19:16:25.423Z,55.85
2022-08-05T19:18:54.094Z,56.45
2022-08-05T19:21:27.566Z,56.23
2022-08-05T19:24:07.124Z,56.37
2022-08-05T19:26:54.140Z,56.56
2022-08-05T19:29:26.524Z,56.03
2022-08-05T19:32:04.424Z,56.29
2022-08-05T19:34:32.535Z,56.04
2022-08-05T19:37:01.870Z,55.81
2022-08-05T19:39:32.006Z,56.37
2022-08-05T19:42:13.580Z,56.41
2022-08-05T19:44:44.869Z,56.18
2022-08-05T19:47:15.260Z,56.28
2022-08-05T19:49:44.683Z,56.56
2022-08-05T19:52:31.106Z,56.83
2022-08-05T19:56:11.812Z,56.95
2022-08-05T19:58:10.409Z,57.26
2022-08-05T20:00:38.188Z,57.43
2022-08-05T20:03:09.027Z,57.84
2022-08-05T20:05:43.027Z,57.96
2022-08-05T20:08:19.909Z,58.01
2022-08-05T20:10:49.742Z,58.13
2022-08-05T20:13:54.672Z,57.96
2022-08-05T20:16:07.008Z,58.25
2022-08-05T20:18:35.817Z,58.29
2022-08-05T20:21:05.316Z,58.74
2022-08-05T20:23:40.342Z,58.27
2022-08-05T20:26:19.522Z,58.39
2022-08-05T20:28:50.624Z,58.59
2022-08-05T20:31:19.351Z,58.41
2022-08-05T20:33:51.225Z,58.78
2022-08-05T20:36:19.569Z,58.80
2022-08-05T20:38:53.335Z,58.33
2022-08-05T20:41:24.098Z,58.57
2022-08-05T20:43:58.689Z,58.73
2022-08-05T20:46:30.829Z,58.92
2022-08-05T20:48:59.775Z,58.71
2022-08-05T20:51:30.550Z,58.49
2022-08-05T20:54:01.494Z,57.38
2022-08-05T20:56:35.430Z,57.09
2022-08-05T20:59:14.239Z,56.16
2022-08-05T21:01:47.781Z,55.97
2022-08-05T21:04:18.663Z,55.87
2022-08-05T21:06:46.701Z,56.06
2022-08-05T21:09:16.085Z,56.15
2022-08-05T21:12:10.127Z,56.45
2022-08-05T21:14:35.015Z,56.59
2022-08-05T21:17:05.351Z,55.27
2022-08-05T21:19:47.066Z,54.95
2022-08-05T21:22:18.701Z,54.46
2022-08-05T21:24:54.850Z,54.21
2022-08-05T21:27:25.422Z,54.23
2022-08-05T21:29:56.372Z,54.07
2022-08-05T21:32:26.915Z,54.13
2022-08-05T21:35:06.679Z,54.00
2022-08-05T21:37:41.269Z,54.33
2022-08-05T21:40:13.167Z,54.72
2022-08-05T21:42:45.157Z,55.32
2022-08-05T21:45:24.271Z,54.99
2022-08-05T21:47:56.774Z,54.99
2022-08-05T21:50:26.080Z,55.35
2022-08-05T21:52:53.936Z,55.20
2022-08-05T21:56:01.781Z,55.39
2022-08-05T21:58:16.757Z,54.57
2022-08-05T22:00:51.228Z,54.33
2022-08-05T22:03:48.651Z,53.60
2022-08-05T22:06:08.237Z,52.77
2022-08-05T22:08:36.491Z,54.25
2022-08-05T22:11:15.428Z,54.40
2022-08-05T22:14:32.408Z,54.47
2022-08-05T22:16:51.965Z,54.68
2022-08-05T22:20:02.747Z,55.08
2022-08-05T22:22:09.776Z,55.59
2022-08-05T22:24:55.997Z,55.54
2022-08-05T22:28:08.999Z,55.27
2022-08-05T22:30:35.373Z,54.69
2022-08-05T22:33:04.545Z,53.86
2022-08-05T22:35:48.513Z,54.88
2022-08-05T22:38:17.289Z,53.71
2022-08-05T22:40:49.853Z,53.59
2022-08-05T22:43:36.357Z,53.08
2022-08-05T22:46:23.509Z,53.32
2022-08-05T22:48:53.684Z,52.79
2022-08-05T22:51:22.698Z,52.08
2022-08-05T22:53:50.994Z,52.90
2022-08-05T22:56:30.517Z,51.50
2022-08-05T22:59:04.156Z,51.52
2022-08-05T23:01:50.983Z,51.46
2022-08-05T23:04:34.307Z,54.23
2022-08-05T23:07:02.918Z,51.28
2022-08-05T23:09:57.897Z,50.72
2022-08-05T23:12:24.108Z,51.22
2022-08-05T23:14:53.577Z,51.14
2022-08-05T23:17:34.953Z,51.02
2022-08-05T23:20:16.514Z,50.58
2022-08-05T23:22:47.319Z,51.04
2022-08-05T23:25:17.085Z,50.93
2022-08-05T23:28:07.180Z,50.59
2022-08-05T23:30:40.594Z,51.64
2022-08-05T23:35:52.485Z,50.52
2022-08-05T23:38:24.507Z,50.38
2022-08-05T23:40:52.908Z,50.06
2022-08-05T23:43:25.335Z,50.00
2022-08-05T23:46:21.025Z,52.10
2022-08-05T23:49:00.973Z,50.41
2022-08-05T23:51:46.591Z,50.48
2022-08-05T23:54:25.607Z,50.07
2022-08-05T23:56:54.463Z,49.77
2022-08-05T23:59:27.631Z,50.60
